createdAt,value
2023-11-30T00:00:48.721Z,57.16
2023-11-30T00:03:20.482Z,57.04
2023-11-30T00:05:52.207Z,56.39
2023-11-30T00:08:24.135Z,56.16
2023-11-30T00:10:55.706Z,56.53
2023-11-30T00:13:27.481Z,57.68
2023-11-30T00:15:59.053Z,57.12
2023-11-30T00:18:30.751Z,56.32
2023-11-30T00:21:02.515Z,57.31
2023-11-30T00:23:36.160Z,56.43
2023-11-30T00:26:07.811Z,56.93
2023-11-30T00:28:39.440Z,56.02
2023-11-30T00:31:11.150Z,55.96
2023-11-30T00:33:42.899Z,55.98
2023-11-30T00:36:14.553Z,56.29
2023-11-30T00:38:46.362Z,55.87
2023-11-30T00:41:18.240Z,56.58
2023-11-30T00:43:49.909Z,56.92
2023-11-30T00:46:21.495Z,57.37
2023-11-30T00:48:53.224Z,55.96
2023-11-30T00:51:24.953Z,56.70
2023-11-30T00:53:56.874Z,56.01
2023-11-30T00:56:28.472Z,55.56
2023-11-30T00:59:00.086Z,55.39
2023-11-30T01:01:31.916Z,55.87
2023-11-30T01:04:03.780Z,56.29
2023-11-30T01:06:35.893Z,55.30
2023-11-30T01:09:08.591Z,56.31
2023-11-30T01:11:44.879Z,55.70
2023-11-30T01:14:17.167Z,55.73
2023-11-30T01:16:48.868Z,55.72
2023-11-30T01:19:20.472Z,55.37
2023-11-30T01:21:52.194Z,56.34
2023-11-30T01:24:24.751Z,56.04
2023-11-30T01:26:56.361Z,55.40
2023-11-30T01:29:28.049Z,55.65
2023-11-30T01:32:00.016Z,55.79
2023-11-30T01:34:31.650Z,56.84
2023-11-30T01:37:03.272Z,57.11
2023-11-30T01:39:34.798Z,55.54
2023-11-30T01:42:06.613Z,56.45
2023-11-30T01:44:38.209Z,56.15
2023-11-30T01:47:10.064Z,54.76
2023-11-30T01:49:41.807Z,56.49
2023-11-30T01:52:13.400Z,55.04
2023-11-30T01:54:46.066Z,55.68
2023-11-30T01:57:17.996Z,56.43
2023-11-30T01:59:49.950Z,55.61
2023-11-30T02:02:21.966Z,55.82
2023-11-30T02:04:54.378Z,55.72
2023-11-30T02:07:25.974Z,54.52
2023-11-30T02:09:57.769Z,55.62
2023-11-30T02:12:29.455Z,55.06
2023-11-30T02:15:01.246Z,54.75
2023-11-30T02:17:33.017Z,54.08
2023-11-30T02:20:06.109Z,54.14
2023-11-30T02:22:37.835Z,54.49
2023-11-30T02:25:09.438Z,54.36
2023-11-30T02:27:41.134Z,53.82
2023-11-30T02:30:13.816Z,55.47
2023-11-30T02:32:45.511Z,53.79
2023-11-30T02:35:17.418Z,53.75
2023-11-30T02:37:48.988Z,54.46
2023-11-30T02:40:20.613Z,53.83
2023-11-30T02:42:52.325Z,53.50
2023-11-30T02:45:23.941Z,54.07
2023-11-30T02:47:55.581Z,53.87
2023-11-30T02:50:27.268Z,55.36
2023-11-30T02:52:58.949Z,54.37
2023-11-30T02:55:30.590Z,54.49
2023-11-30T02:58:02.233Z,54.16
2023-11-30T03:00:33.968Z,54.18
2023-11-30T03:03:05.713Z,54.73
2023-11-30T03:05:37.329Z,54.69
2023-11-30T03:08:09.144Z,54.79
2023-11-30T03:10:40.717Z,53.22
2023-11-30T03:13:12.459Z,52.99
2023-11-30T03:15:46.000Z,54.45
2023-11-30T03:18:17.652Z,53.14
2023-11-30T03:20:49.288Z,53.95
2023-11-30T03:23:20.833Z,54.66
2023-11-30T03:25:52.416Z,53.33
2023-11-30T03:28:23.950Z,52.93
2023-11-30T03:30:55.448Z,52.72
2023-11-30T03:33:27.001Z,53.04
2023-11-30T03:35:58.899Z,54.36
2023-11-30T03:38:30.727Z,52.92
2023-11-30T03:41:02.294Z,52.06
2023-11-30T03:43:33.851Z,51.73
2023-11-30T03:46:05.860Z,51.06
2023-11-30T03:48:37.476Z,51.85
2023-11-30T03:51:09.207Z,51.80
2023-11-30T03:53:40.845Z,52.82
2023-11-30T03:56:12.570Z,51.40
2023-11-30T03:58:44.127Z,52.13
2023-11-30T04:01:23.806Z,52.24
2023-11-30T04:03:55.448Z,50.78
2023-11-30T04:06:27.022Z,50.89
2023-11-30T04:09:00.445Z,50.92
2023-11-30T04:11:32.071Z,51.02
2023-11-30T04:14:08.628Z,51.24
2023-11-30T04:16:40.330Z,51.82
2023-11-30T04:19:11.904Z,51.46
2023-11-30T04:21:43.465Z,51.16
2023-11-30T04:24:17.074Z,51.75
2023-11-30T04:26:48.741Z,51.09
2023-11-30T04:29:20.456Z,51.48
2023-11-30T04:31:52.112Z,50.67
2023-11-30T04:34:23.758Z,51.57
2023-11-30T04:36:55.320Z,50.61
2023-11-30T04:39:26.906Z,50.23
2023-11-30T04:41:58.587Z,51.14
2023-11-30T04:44:30.386Z,51.47
2023-11-30T04:47:01.939Z,52.48
2023-11-30T04:49:33.687Z,52.85
2023-11-30T04:52:05.442Z,53.18
2023-11-30T04:54:39.195Z,53.16
2023-11-30T04:57:11.230Z,53.68
2023-11-30T04:59:42.809Z,55.36
2023-11-30T05:02:14.529Z,55.50
2023-11-30T05:04:46.248Z,56.25
2023-11-30T05:07:17.852Z,56.94
2023-11-30T05:09:49.441Z,58.04
2023-11-30T05:12:21.373Z,58.94
2023-11-30T05:14:52.964Z,59.45
2023-11-30T05:17:24.550Z,59.72
2023-11-30T05:19:56.688Z,59.57
2023-11-30T05:22:28.233Z,60.19
2023-11-30T05:24:59.716Z,59.25
2023-11-30T05:27:31.253Z,60.18
2023-11-30T05:30:04.531Z,60.39
2023-11-30T05:32:36.080Z,60.95
2023-11-30T05:35:08.476Z,61.72
2023-11-30T05:37:40.031Z,60.47
2023-11-30T05:40:12.794Z,60.20
2023-11-30T05:42:44.433Z,61.69
2023-11-30T05:45:16.049Z,61.08
2023-11-30T05:47:47.687Z,61.63
2023-11-30T05:50:20.282Z,62.31
2023-11-30T05:52:51.851Z,62.53
2023-11-30T05:55:23.402Z,63.01
2023-11-30T05:57:55.641Z,62.78
2023-11-30T06:00:27.839Z,62.20
2023-11-30T06:02:59.541Z,61.61
2023-11-30T06:05:31.220Z,62.87
2023-11-30T06:08:02.835Z,62.63
2023-11-30T06:10:34.415Z,63.36
2023-11-30T06:13:08.379Z,63.26
2023-11-30T06:15:40.045Z,62.39
2023-11-30T06:18:11.945Z,62.66
2023-11-30T06:20:43.557Z,63.27
2023-11-30T06:23:15.179Z,62.17
2023-11-30T06:25:46.701Z,62.97
2023-11-30T06:28:18.319Z,62.56
2023-11-30T06:30:49.913Z,63.60
2023-11-30T06:33:21.534Z,64.13
2023-11-30T06:35:53.101Z,63.16
2023-11-30T06:38:24.940Z,62.63
2023-11-30T06:40:56.490Z,63.44
2023-11-30T06:43:29.969Z,63.20
2023-11-30T06:46:01.525Z,62.94
2023-11-30T06:48:33.465Z,63.40
2023-11-30T06:51:08.007Z,62.83
2023-11-30T06:53:39.624Z,62.48
2023-11-30T06:56:14.524Z,63.26
2023-11-30T06:58:46.134Z,63.23
2023-11-30T07:01:17.763Z,64.59
2023-11-30T07:03:49.592Z,63.14
2023-11-30T07:06:22.405Z,63.15
2023-11-30T07:08:54.122Z,63.42
2023-11-30T07:11:25.649Z,63.53
2023-11-30T07:13:57.304Z,63.87
2023-11-30T07:16:29.278Z,63.48
2023-11-30T07:19:01.046Z,63.14
2023-11-30T07:21:32.648Z,63.78
2023-11-30T07:24:04.775Z,63.54
2023-11-30T07:26:36.827Z,63.43
2023-11-30T07:29:08.497Z,63.73
2023-11-30T07:31:40.146Z,63.81
2023-11-30T07:34:11.836Z,64.28
2023-11-30T07:36:43.632Z,64.23
2023-11-30T07:39:15.215Z,65.34
2023-11-30T07:41:46.873Z,65.24
2023-11-30T07:44:18.396Z,65.05
2023-11-30T07:46:49.979Z,64.37
2023-11-30T07:49:21.492Z,65.43
2023-11-30T07:51:53.136Z,65.45
2023-11-30T07:54:25.571Z,65.50
2023-11-30T07:56:57.397Z,65.03
2023-11-30T07:59:29.015Z,65.55
2023-11-30T08:02:01.483Z,64.85
2023-11-30T08:04:33.766Z,65.08
2023-11-30T08:07:05.343Z,65.16
2023-11-30T08:09:36.925Z,65.30
2023-11-30T08:12:08.575Z,65.22
2023-11-30T08:14:40.164Z,65.07
2023-11-30T08:17:11.899Z,64.63
2023-11-30T08:19:44.370Z,64.77
2023-11-30T08:22:16.174Z,63.78
2023-11-30T08:24:47.833Z,64.35
2023-11-30T08:27:19.639Z,64.83
2023-11-30T08:29:51.529Z,63.96
2023-11-30T08:32:23.263Z,64.47
2023-11-30T08:34:54.993Z,65.80
2023-11-30T08:37:26.591Z,65.14
2023-11-30T08:40:00.626Z,64.67
2023-11-30T08:42:32.319Z,64.85
2023-11-30T08:45:06.182Z,63.96
2023-11-30T08:47:37.950Z,63.52
2023-11-30T08:50:10.140Z,63.63
2023-11-30T08:52:41.762Z,64.19
2023-11-30T08:55:13.808Z,63.38
2023-11-30T08:57:45.596Z,64.19
2023-11-30T09:00:20.592Z,63.64
2023-11-30T09:02:52.580Z,63.53
2023-11-30T09:05:24.979Z,63.99
2023-11-30T09:07:56.734Z,64.11
2023-11-30T09:10:28.832Z,63.99
2023-11-30T09:13:03.909Z,63.97
2023-11-30T09:15:35.820Z,64.14
2023-11-30T09:18:09.152Z,64.52
2023-11-30T09:20:40.927Z,64.32
2023-11-30T09:23:12.793Z,64.44
2023-11-30T09:25:44.931Z,64.62
2023-11-30T09:28:19.810Z,64.15
2023-11-30T09:30:57.164Z,64.49
2023-11-30T09:33:39.457Z,65.26
2023-11-30T09:36:17.760Z,64.55
2023-11-30T09:39:11.747Z,64.19
2023-11-30T09:42:22.134Z,64.20
2023-11-30T09:45:09.034Z,64.44
2023-11-30T09:47:44.070Z,64.52
2023-11-30T09:50:24.085Z,64.89
2023-11-30T09:53:04.851Z,64.78
2023-11-30T09:55:40.017Z,64.02
2023-11-30T09:58:12.449Z,64.78
2023-11-30T10:01:23.725Z,65.08
2023-11-30T10:04:25.190Z,64.83
2023-11-30T10:07:13.703Z,66.65
2023-11-30T10:10:15.539Z,67.14
2023-11-30T10:13:09.789Z,66.67
2023-11-30T10:16:25.088Z,65.79
2023-11-30T10:19:14.818Z,64.60
2023-11-30T10:22:02.087Z,65.19
2023-11-30T10:24:49.810Z,65.01
2023-11-30T10:27:23.964Z,65.05
2023-11-30T10:30:03.999Z,64.24
2023-11-30T10:32:47.117Z,64.18
2023-11-30T10:35:21.503Z,64.31
2023-11-30T10:37:55.250Z,64.62
2023-11-30T10:40:37.620Z,64.32
2023-11-30T10:43:13.336Z,64.12
2023-11-30T10:45:47.135Z,64.32
2023-11-30T10:50:53.234Z,64.41
2023-11-30T10:53:44.076Z,64.02
2023-11-30T10:56:19.082Z,65.06
2023-11-30T10:58:54.337Z,64.32
2023-11-30T11:01:28.172Z,63.96
2023-11-30T11:04:00.353Z,64.58
2023-11-30T11:12:51.665Z,65.15
2023-11-30T11:15:35.884Z,65.39
2023-11-30T11:18:14.880Z,64.63
2023-11-30T11:20:59.395Z,65.41
2023-11-30T11:23:50.015Z,65.41
2023-11-30T11:37:06.415Z,66.31
2023-11-30T11:39:38.634Z,65.47
2023-11-30T11:42:10.331Z,65.51
2023-11-30T11:44:42.040Z,64.99
2023-11-30T11:47:13.719Z,64.87
2023-11-30T11:49:46.062Z,65.10
2023-11-30T11:52:22.804Z,64.68
2023-11-30T11:55:05.073Z,65.16
2023-11-30T11:57:39.808Z,65.43
2023-11-30T12:00:19.244Z,64.96
2023-11-30T12:02:52.640Z,64.56
2023-11-30T12:05:27.171Z,65.20
2023-11-30T12:08:02.674Z,65.14
2023-11-30T12:10:43.500Z,64.33
2023-11-30T12:13:16.208Z,64.10
2023-11-30T12:15:50.475Z,64.40
2023-11-30T12:18:22.682Z,64.64
2023-11-30T12:20:54.301Z,64.28
2023-11-30T12:23:25.894Z,64.35
2023-11-30T12:25:57.682Z,64.26
2023-11-30T12:28:39.144Z,63.69
2023-11-30T12:31:10.815Z,63.73
2023-11-30T12:33:42.542Z,64.00
2023-11-30T12:36:15.320Z,64.24
2023-11-30T12:38:47.014Z,63.81
2023-11-30T12:41:18.653Z,63.62
2023-11-30T12:43:50.288Z,63.02
2023-11-30T12:46:21.953Z,63.33
2023-11-30T12:48:54.051Z,62.95
2023-11-30T12:51:26.063Z,63.17
2023-11-30T12:53:57.805Z,62.95
2023-11-30T12:56:29.498Z,63.13
2023-11-30T12:59:01.420Z,63.48
2023-11-30T13:01:33.113Z,63.64
2023-11-30T13:04:05.362Z,63.67
2023-11-30T13:06:37.086Z,64.06
2023-11-30T13:09:15.358Z,64.00
2023-11-30T13:11:47.078Z,63.73
2023-11-30T13:14:19.285Z,63.89
2023-11-30T13:16:51.077Z,64.13
2023-11-30T13:19:24.841Z,64.42
2023-11-30T13:21:57.294Z,64.36
2023-11-30T13:24:29.044Z,64.30
2023-11-30T13:27:00.770Z,64.42
2023-11-30T13:29:32.353Z,64.09
2023-11-30T13:32:05.513Z,64.05
2023-11-30T13:34:38.881Z,64.48
2023-11-30T13:37:10.582Z,64.38
2023-11-30T13:39:42.217Z,64.36
2023-11-30T13:42:13.929Z,64.22
2023-11-30T13:44:45.687Z,64.21
2023-11-30T13:47:18.017Z,64.18
2023-11-30T13:49:49.593Z,64.51
2023-11-30T13:52:21.248Z,64.43
2023-11-30T13:54:52.939Z,64.34
2023-11-30T13:57:24.543Z,64.85
2023-11-30T13:59:57.113Z,65.02
2023-11-30T14:02:28.946Z,64.54
2023-11-30T14:05:00.639Z,64.88
2023-11-30T14:07:34.191Z,64.38
2023-11-30T14:10:11.090Z,64.69
2023-11-30T14:12:43.793Z,64.66
2023-11-30T14:15:15.720Z,64.71
2023-11-30T14:17:47.372Z,64.93
2023-11-30T14:20:21.151Z,64.83
2023-11-30T14:22:53.200Z,64.83
2023-11-30T14:25:26.874Z,64.38
2023-11-30T14:28:03.495Z,64.19
2023-11-30T14:30:39.493Z,64.21
2023-11-30T14:33:13.369Z,65.11
2023-11-30T14:35:45.894Z,65.22
2023-11-30T14:38:17.570Z,65.25
2023-11-30T14:40:49.198Z,64.26
2023-11-30T14:43:20.819Z,64.21
2023-11-30T14:45:52.408Z,64.24
2023-11-30T14:48:26.850Z,65.19
2023-11-30T14:50:58.543Z,65.48
2023-11-30T14:53:30.562Z,64.90
2023-11-30T14:56:03.173Z,64.63
2023-11-30T14:58:34.805Z,64.69
2023-11-30T15:01:11.560Z,64.71
2023-11-30T15:03:43.400Z,64.70
2023-11-30T15:06:15.122Z,64.48
2023-11-30T15:08:46.818Z,64.15
2023-11-30T15:11:18.515Z,64.78
2023-11-30T15:13:50.140Z,64.85
2023-11-30T15:16:23.040Z,64.63
2023-11-30T15:18:54.728Z,64.33
2023-11-30T15:21:26.661Z,64.69
2023-11-30T15:23:58.308Z,65.08
2023-11-30T15:26:29.976Z,64.51
2023-11-30T15:29:01.632Z,65.33
2023-11-30T15:31:33.384Z,64.66
2023-11-30T15:34:05.174Z,64.68
2023-11-30T15:36:37.090Z,64.19
2023-11-30T15:39:17.006Z,64.28
2023-11-30T15:41:48.731Z,64.77
2023-11-30T15:44:20.343Z,65.08
2023-11-30T15:46:51.987Z,64.98
2023-11-30T15:49:24.911Z,64.92
2023-11-30T15:51:56.646Z,64.71
2023-11-30T15:54:28.268Z,65.00
2023-11-30T15:57:00.211Z,65.65
2023-11-30T15:59:31.864Z,64.98
2023-11-30T16:02:03.809Z,65.30
2023-11-30T16:04:36.031Z,64.77
2023-11-30T16:07:07.783Z,64.77
2023-11-30T16:09:39.545Z,64.69
2023-11-30T16:12:11.462Z,65.25
2023-11-30T16:14:43.151Z,65.64
2023-11-30T16:17:14.761Z,65.38
2023-11-30T16:19:46.533Z,65.28
2023-11-30T16:22:18.435Z,65.62
2023-11-30T16:24:50.344Z,66.24
2023-11-30T16:27:22.156Z,65.91
2023-11-30T16:29:54.586Z,65.76
2023-11-30T16:32:26.266Z,66.69
2023-11-30T16:34:57.935Z,66.02
2023-11-30T16:37:29.526Z,66.48
2023-11-30T16:40:01.699Z,66.54
2023-11-30T16:42:33.564Z,65.64
2023-11-30T16:45:07.320Z,65.84
2023-11-30T16:47:39.449Z,65.36
2023-11-30T16:50:15.512Z,65.13
2023-11-30T16:52:48.994Z,64.95
2023-11-30T16:55:22.746Z,64.88
2023-11-30T16:57:54.435Z,64.89
2023-11-30T17:00:26.122Z,65.12
2023-11-30T17:02:58.127Z,65.98
2023-11-30T17:05:30.269Z,67.21
2023-11-30T17:08:02.243Z,65.89
2023-11-30T17:10:33.855Z,65.52
2023-11-30T17:13:05.719Z,65.30
2023-11-30T17:15:37.671Z,64.91
2023-11-30T17:18:09.366Z,64.53
2023-11-30T17:20:42.061Z,65.08
2023-11-30T17:23:13.985Z,65.13
2023-11-30T17:25:45.609Z,65.70
2023-11-30T17:28:17.223Z,65.60
2023-11-30T17:30:48.901Z,65.66
2023-11-30T17:33:20.726Z,65.63
2023-11-30T17:35:52.570Z,65.45
2023-11-30T17:38:24.246Z,65.29
2023-11-30T17:40:55.902Z,66.21
2023-11-30T17:43:27.570Z,65.56
2023-11-30T17:45:59.346Z,65.83
2023-11-30T17:48:31.049Z,65.13
2023-11-30T17:51:02.663Z,64.76
2023-11-30T17:53:35.802Z,64.65
2023-11-30T17:56:08.066Z,64.37
2023-11-30T17:58:39.789Z,64.93
2023-11-30T18:01:11.481Z,65.15
2023-11-30T18:03:43.234Z,65.62
2023-11-30T18:06:14.948Z,65.73
2023-11-30T18:08:47.266Z,65.36
2023-11-30T18:11:19.286Z,64.96
2023-11-30T18:13:51.026Z,65.12
2023-11-30T18:16:22.744Z,65.09
2023-11-30T18:18:55.510Z,64.95
2023-11-30T18:21:30.109Z,65.41
2023-11-30T18:24:01.940Z,65.30
2023-11-30T18:26:33.520Z,66.65
2023-11-30T18:29:05.110Z,66.07
2023-11-30T18:31:37.497Z,66.45
2023-11-30T18:34:09.360Z,66.29
2023-11-30T18:36:41.164Z,65.87
2023-11-30T18:39:14.550Z,65.82
2023-11-30T18:41:46.250Z,65.52
2023-11-30T18:44:18.005Z,65.38
2023-11-30T18:46:49.798Z,65.17
2023-11-30T18:49:21.528Z,65.10
2023-11-30T18:51:53.298Z,65.10
2023-11-30T18:54:25.162Z,64.47
2023-11-30T18:56:56.863Z,65.08
2023-11-30T18:59:28.982Z,64.70
2023-11-30T19:02:00.784Z,64.61
2023-11-30T19:04:33.676Z,64.91
2023-11-30T19:07:05.376Z,66.93
2023-11-30T19:09:37.216Z,67.18
2023-11-30T19:12:09.668Z,66.84
2023-11-30T19:14:41.313Z,66.85
2023-11-30T19:17:12.952Z,65.87
2023-11-30T19:19:44.894Z,65.40
2023-11-30T19:22:18.322Z,64.93
2023-11-30T19:24:50.191Z,64.17
2023-11-30T19:27:21.853Z,65.35
2023-11-30T19:29:53.479Z,65.19
2023-11-30T19:32:25.120Z,66.36
2023-11-30T19:34:56.723Z,66.10
2023-11-30T19:37:28.423Z,66.28
2023-11-30T19:40:02.074Z,65.65
2023-11-30T19:42:34.018Z,65.97
2023-11-30T19:45:06.409Z,65.38
2023-11-30T19:47:38.137Z,64.84
2023-11-30T19:50:10.930Z,65.38
2023-11-30T19:52:42.723Z,65.30
2023-11-30T19:55:14.492Z,65.14
2023-11-30T19:57:46.854Z,65.10
2023-11-30T20:00:18.920Z,65.17
2023-11-30T20:02:50.543Z,65.25
2023-11-30T20:05:23.414Z,64.77
2023-11-30T20:07:55.026Z,65.13
2023-11-30T20:10:27.049Z,65.09
2023-11-30T20:12:58.790Z,64.78
2023-11-30T20:15:31.576Z,64.60
2023-11-30T20:18:05.127Z,64.79
2023-11-30T20:20:36.828Z,65.04
2023-11-30T20:23:08.485Z,64.86
2023-11-30T20:25:40.083Z,65.30
2023-11-30T20:28:11.805Z,65.00
2023-11-30T20:30:43.492Z,64.91
2023-11-30T20:33:15.183Z,64.35
2023-11-30T20:35:46.780Z,64.69
2023-11-30T20:38:18.421Z,64.56
2023-11-30T20:40:51.518Z,64.81
2023-11-30T20:43:23.111Z,64.62
2023-11-30T20:45:54.797Z,64.33
2023-11-30T20:48:26.581Z,65.14
2023-11-30T20:50:58.130Z,65.43
2023-11-30T20:53:29.748Z,66.97
2023-11-30T20:56:01.496Z,65.56
2023-11-30T20:58:33.201Z,65.10
2023-11-30T21:01:05.494Z,65.17
2023-11-30T21:03:37.365Z,65.49
2023-11-30T21:06:09.862Z,66.17
2023-11-30T21:08:41.530Z,65.56
2023-11-30T21:11:14.793Z,65.56
2023-11-30T21:13:46.440Z,65.26
2023-11-30T21:16:19.561Z,65.47
2023-11-30T21:18:51.597Z,65.20
2023-11-30T21:21:23.363Z,65.30
2023-11-30T21:23:55.146Z,65.98
2023-11-30T21:26:26.832Z,65.86
2023-11-30T21:28:58.496Z,66.57
2023-11-30T21:31:30.583Z,65.69
2023-11-30T21:34:02.383Z,65.51
2023-11-30T21:36:34.114Z,67.10
2023-11-30T21:39:05.777Z,67.57
2023-11-30T21:41:37.434Z,67.85
2023-11-30T21:44:09.122Z,67.48
2023-11-30T21:46:40.779Z,66.93
2023-11-30T21:49:14.344Z,65.91
2023-11-30T21:51:45.967Z,65.21
2023-11-30T21:54:17.588Z,64.74
2023-11-30T21:56:49.239Z,64.94
2023-11-30T21:59:20.919Z,64.59
2023-11-30T22:01:52.782Z,65.11
2023-11-30T22:04:24.591Z,65.67
2023-11-30T22:06:56.768Z,65.43
2023-11-30T22:09:29.115Z,66.80
2023-11-30T22:12:04.324Z,66.98
2023-11-30T22:14:36.190Z,65.67
2023-11-30T22:17:07.888Z,65.30
2023-11-30T22:19:39.659Z,65.99
2023-11-30T22:22:11.405Z,65.38
2023-11-30T22:24:43.076Z,65.21
2023-11-30T22:27:14.740Z,64.72
2023-11-30T22:29:46.460Z,65.25
2023-11-30T22:32:18.136Z,64.97
2023-11-30T22:34:49.816Z,66.11
2023-11-30T22:37:21.609Z,66.22
2023-11-30T22:39:53.393Z,65.78
2023-11-30T22:42:27.039Z,65.14
2023-11-30T22:44:59.569Z,65.39
2023-11-30T22:47:31.301Z,64.90
2023-11-30T22:50:05.073Z,65.92
2023-11-30T22:52:36.894Z,66.99
2023-11-30T22:55:09.662Z,65.40
2023-11-30T22:57:41.420Z,65.61
2023-11-30T23:00:21.136Z,65.76
2023-11-30T23:02:53.677Z,66.23
2023-11-30T23:05:25.549Z,66.57
2023-11-30T23:07:57.537Z,65.67
2023-11-30T23:10:29.137Z,65.38
2023-11-30T23:13:01.246Z,65.39
2023-11-30T23:15:33.088Z,65.75
2023-11-30T23:18:04.892Z,66.33
2023-11-30T23:20:36.588Z,66.83
2023-11-30T23:23:08.227Z,66.58
2023-11-30T23:25:39.858Z,66.59
2023-11-30T23:28:11.614Z,68.77
2023-11-30T23:30:43.529Z,68.47
2023-11-30T23:33:15.355Z,67.21
2023-11-30T23:35:47.255Z,66.67
2023-11-30T23:38:19.048Z,66.73
2023-11-30T23:40:50.738Z,66.27
2023-11-30T23:43:22.409Z,68.22
2023-11-30T23:45:54.035Z,66.78
2023-11-30T23:48:25.795Z,66.07
2023-11-30T23:50:57.413Z,66.25
2023-11-30T23:53:29.221Z,66.22
2023-11-30T23:56:00.842Z,65.41
2023-11-30T23:58:32.525Z,65.67
